Time;durP1;ratioP1;P1;durP2;ratioP2;P2;SDS_P1;SDS_P2;PMS_P1;PMS_P2;Temp;Humidity;BMP_temperature;BMP_pressure;BME280_temperature;BME280_humidity;BME280_pressure;Samples;Min_cycle;Max_cycle;Signal;HPM_P1;HPM_P2
2023/08/19 00:01:49;254934.00;0.85;440.44;43822.00;0.15;76.50;;;;;26.10;1.00;;;;;;2273120;61;2009;-88
2023/08/19 00:04:18;88986.00;0.30;154.56;0.00;0.00;0.62;;;;;26.20;1.00;;;;;;2273044;61;2164;-87
2023/08/19 00:06:45;42928.00;0.14;74.95;0.00;0.00;0.62;;;;;26.10;1.00;;;;;;2273041;61;1687;-86
2023/08/19 00:09:11;238048.00;0.79;411.39;0.00;0.00;0.62;;;;;26.20;1.00;;;;;;2273036;61;1644;-86
2023/08/19 00:11:40;95195.00;0.32;165.28;0.00;0.00;0.62;;;;;26.20;1.00;;;;;;2273053;61;919;-87
2023/08/19 00:14:07;388141.00;1.29;669.42;51100.00;0.17;89.09;;;;;26.20;1.00;;;;;;2273059;61;1341;-87
2023/08/19 00:16:35;131079.00;0.44;227.19;0.00;0.00;0.62;;;;;26.00;1.00;;;;;;2273046;61;1736;-87
2023/08/19 00:19:02;32714.00;0.11;57.28;0.00;0.00;0.62;;;;;26.10;1.00;;;;;;2273102;61;1295;-87
2023/08/19 00:21:31;490552.00;1.64;845.56;64710.00;0.22;112.62;;;;;26.00;1.00;;;;;;2272715;61;2004;-86
2023/08/19 00:23:59;169017.00;0.56;292.57;0.00;0.00;0.62;;;;;25.90;1.00;;;;;;2272958;61;1440;-88
2023/08/19 00:26:26;347440.00;1.16;599.46;0.00;0.00;0.62;;;;;25.70;1.00;;;;;;2272960;61;1794;-88
2023/08/19 00:28:54;503929.00;1.68;868.59;51984.00;0.17;90.62;;;;;25.60;1.00;;;;;;2272944;61;1649;-87
2023/08/19 00:31:21;218030.00;0.73;376.95;0.00;0.00;0.62;;;;;25.90;1.00;;;;;;2272811;61;1040;-86
2023/08/19 00:33:48;409811.00;1.37;706.67;45943.00;0.15;80.17;;;;;25.90;1.00;;;;;;2272879;61;1638;-87
2023/08/19 00:36:16;262592.00;0.88;453.61;0.00;0.00;0.62;;;;;26.00;1.00;;;;;;2272976;61;1634;-87
2023/08/19 00:38:45;62956.00;0.21;109.59;0.00;0.00;0.62;;;;;25.90;1.00;;;;;;2272959;61;1645;-86
2023/08/19 00:41:13;101759.00;0.34;176.61;17602.00;0.06;31.12;;;;;25.70;1.00;;;;;;2273007;61;1916;-87
2023/08/19 00:43:40;343127.00;1.14;592.05;45522.00;0.15;79.44;;;;;25.70;1.00;;;;;;2272949;61;1776;-87
2023/08/19 00:46:08;150003.00;0.50;259.81;11989.00;0.04;21.39;;;;;25.60;1.00;;;;;;2272977;61;897;-87
2023/08/19 00:48:36;183482.00;0.61;317.49;67030.00;0.22;116.63;;;;;25.50;1.00;;;;;;2272927;61;1551;-85
2023/08/19 00:51:05;252441.00;0.84;436.15;59748.00;0.20;104.04;;;;;25.60;1.00;;;;;;2272994;61;1035;-87
2023/08/19 00:53:34;206182.00;0.69;356.56;74059.00;0.25;128.77;;;;;25.70;1.00;;;;;;2272849;61;1699;-87
2023/08/19 00:56:03;15410.00;0.05;27.32;0.00;0.00;0.62;;;;;25.40;1.00;;;;;;2272921;61;1605;-87
2023/08/19 00:58:30;55779.00;0.19;97.18;0.00;0.00;0.62;;;;;25.50;1.00;;;;;;2272848;61;1717;-87
2023/08/19 01:00:57;280650.00;0.94;484.65;78220.00;0.26;135.96;;;;;25.40;1.00;;;;;;2272581;61;1912;-87
2023/08/19 01:03:25;150820.00;0.50;261.22;0.00;0.00;0.62;;;;;25.30;1.00;;;;;;2272872;61;1741;-87
2023/08/19 01:06:11;154110.00;0.51;266.89;0.00;0.00;0.62;;;;;25.30;1.00;;;;;;2272921;61;1728;-86
2023/08/19 01:08:49;50261.00;0.17;87.64;0.00;0.00;0.62;;;;;25.40;1.00;;;;;;2272902;61;1652;-87
2023/08/19 01:11:30;9687.00;0.03;17.41;0.00;0.00;0.62;;;;;25.40;1.00;;;;;;2272893;61;1619;-87
2023/08/19 01:14:11;0.00;0.00;0.62;0.00;0.00;0.62;;;;;25.30;1.00;;;;;;2272957;61;1340;-87
2023/08/19 01:16:44;0.00;0.00;0.62;0.00;0.00;0.62;;;;;25.40;1.00;;;;;;2272907;61;959;-88
2023/08/19 01:19:23;26498.00;0.09;46.52;0.00;0.00;0.62;;;;;25.40;1.00;;;;;;2272793;61;1556;-87
2023/08/19 01:21:58;90070.00;0.30;156.43;0.00;0.00;0.62;;;;;25.10;1.00;;;;;;2272821;61;2001;-87
2023/08/19 01:24:28;6902.00;0.02;12.58;0.00;0.00;0.62;;;;;25.10;1.00;;;;;;2272826;61;1419;-87
2023/08/19 01:26:57;207849.00;0.69;359.43;0.00;0.00;0.62;;;;;25.30;1.00;;;;;;2272848;61;1668;-86
2023/08/19 01:29:24;270845.00;0.90;467.80;81869.00;0.27;142.27;;;;;25.30;1.00;;;;;;2272914;61;921;-87
2023/08/19 01:31:52;23608.00;0.08;41.52;0.00;0.00;0.62;;;;;25.20;1.00;;;;;;2272811;61;1597;-88
2023/08/19 01:34:19;194402.00;0.65;336.29;61641.00;0.21;107.31;;;;;25.20;1.00;;;;;;2272688;61;1685;-88
2023/08/19 01:36:54;8869.00;0.03;15.99;0.00;0.00;0.62;;;;;25.20;1.00;;;;;;2272827;61;1619;-87
2023/08/19 01:39:23;232682.00;0.78;402.16;0.00;0.00;0.62;;;;;25.30;1.00;;;;;;2272741;61;1773;-87
2023/08/19 01:41:51;31643.00;0.11;55.43;0.00;0.00;0.62;;;;;25.20;1.00;;;;;;2272760;61;1998;-87
2023/08/19 01:44:21;559203.00;1.86;963.83;56165.00;0.19;97.85;;;;;25.40;1.00;;;;;;2272777;61;1688;-91
2023/08/19 01:46:48;379556.00;1.27;654.66;19440.00;0.06;34.30;;;;;25.20;1.00;;;;;;2272835;61;1038;-87
2023/08/19 01:49:15;715193.00;2.38;1233.59;18404.00;0.06;32.51;;;;;25.30;1.00;;;;;;2272685;61;1778;-87
2023/08/19 01:51:42;971202.00;3.24;1681.53;99415.00;0.33;172.56;;;;;25.10;1.00;;;;;;2272602;61;1749;-86
2023/08/19 01:54:09;813567.00;2.71;1404.79;62482.00;0.21;108.77;;;;;25.10;1.00;;;;;;2272716;61;1677;-87
2023/08/19 01:56:37;659577.00;2.20;1137.21;16475.00;0.05;29.17;;;;;25.20;1.00;;;;;;2272729;61;1592;-87
2023/08/19 01:59:04;1178635.00;3.93;2051.64;67162.00;0.22;116.86;;;;;25.20;1.00;;;;;;2272689;61;1727;-87
2023/08/19 02:01:33;1014913.00;3.38;1758.90;41808.00;0.14;73.02;;;;;25.30;1.00;;;;;;2272669;61;1911;-86
2023/08/19 02:04:00;548980.00;1.83;946.20;23390.00;0.08;41.14;;;;;25.30;1.00;;;;;;2272706;61;1717;-88
2023/08/19 02:06:29;1304672.00;4.35;2280.66;124675.00;0.42;216.15;;;;;25.40;1.00;;;;;;2272730;61;1673;-87
2023/08/19 02:08:56;1270200.00;4.23;2217.67;139987.00;0.47;242.55;;;;;25.40;1.00;;;;;;2272729;61;998;-87
2023/08/19 02:11:23;824989.00;2.75;1424.74;64629.00;0.22;112.48;;;;;25.20;1.00;;;;;;2272709;61;984;-86
2023/08/19 02:13:49;950674.00;3.17;1645.30;92066.00;0.31;159.87;;;;;25.30;1.00;;;;;;2272667;61;1693;-86
2023/08/19 02:16:16;310887.00;1.04;536.63;68427.00;0.23;119.04;;;;;25.30;1.00;;;;;;2272642;61;1539;-86
2023/08/19 02:18:45;359894.00;1.20;620.87;61985.00;0.21;107.91;;;;;25.10;1.00;;;;;;2272631;61;1669;-87
2023/08/19 02:21:12;262042.00;0.87;452.66;71227.00;0.24;123.88;;;;;25.20;1.00;;;;;;2272699;61;1920;-86
2023/08/19 02:23:39;201582.00;0.67;348.65;64157.00;0.21;111.66;;;;;25.10;1.00;;;;;;2272580;61;1690;-87
2023/08/19 02:26:05;385891.00;1.29;665.55;72112.00;0.24;125.41;;;;;25.00;1.00;;;;;;2272592;61;1017;-88
2023/08/19 02:28:33;328569.00;1.10;567.03;70506.00;0.24;122.63;;;;;25.00;1.00;;;;;;2272715;61;918;-87
2023/08/19 02:31:03;365949.00;1.22;631.27;68070.00;0.23;118.43;;;;;25.10;1.00;;;;;;2272630;61;1633;-86
2023/08/19 02:33:32;339714.00;1.13;586.18;83091.00;0.28;144.38;;;;;24.90;1.00;;;;;;2272609;61;1364;-87
2023/08/19 02:36:01;342430.00;1.14;590.85;94000.00;0.31;163.21;;;;;24.50;1.00;;;;;;2272484;61;1578;-86
2023/08/19 02:38:28;522524.00;1.74;900.61;66795.00;0.22;116.22;;;;;24.10;1.90;;;;;;2272474;61;1694;-88
2023/08/19 02:40:56;527030.00;1.76;908.37;79383.00;0.26;137.97;;;;;23.90;2.30;;;;;;2272568;61;1906;-87
2023/08/19 02:43:23;271503.00;0.91;468.93;0.00;0.00;0.62;;;;;24.00;2.30;;;;;;2272572;61;1376;-87
2023/08/19 02:45:50;245761.00;0.82;424.66;0.00;0.00;0.62;;;;;24.10;1.40;;;;;;2272612;61;1035;-87
2023/08/19 02:48:17;278743.00;0.93;481.38;0.00;0.00;0.62;;;;;24.20;1.30;;;;;;2272610;61;1651;-85
2023/08/19 02:50:44;716708.00;2.39;1236.22;166718.00;0.56;288.61;;;;;24.30;1.30;;;;;;2272613;61;1106;-87
2023/08/19 02:53:12;787820.00;2.63;1359.89;135287.00;0.45;234.45;;;;;24.50;1.00;;;;;;2272525;61;1719;-85
2023/08/19 02:55:43;125695.00;0.42;217.91;0.00;0.00;0.62;;;;;24.60;1.00;;;;;;2272636;61;1182;-87
2023/08/19 02:58:13;142097.00;0.47;246.19;0.00;0.00;0.62;;;;;24.70;1.00;;;;;;2272551;61;1573;-88
2023/08/19 03:00:40;122362.00;0.41;212.16;0.00;0.00;0.62;;;;;24.60;1.00;;;;;;2272545;61;2001;-87
2023/08/19 03:03:07;173864.00;0.58;300.92;0.00;0.00;0.62;;;;;24.90;1.00;;;;;;2272909;61;1671;-86
2023/08/19 03:05:38;253200.00;0.84;437.45;41085.00;0.14;71.77;;;;;25.00;1.00;;;;;;2272817;61;1607;-87
2023/08/19 03:08:05;131556.00;0.44;228.01;0.00;0.00;0.62;;;;;25.00;1.00;;;;;;2273225;55;3751;-88
2023/08/19 03:10:35;279036.00;0.93;481.88;5624.00;0.02;10.37;;;;;24.90;1.00;;;;;;2268768;61;2176;-85
2023/08/19 03:13:02;343711.00;1.15;593.05;0.00;0.00;0.62;;;;;24.90;1.00;;;;;;2268834;61;982;-87
2023/08/19 03:15:29;180356.00;0.60;312.10;33989.00;0.11;59.49;;;;;24.80;1.00;;;;;;2268753;61;1699;-87
2023/08/19 03:17:56;180536.00;0.60;312.41;0.00;0.00;0.62;;;;;25.00;1.00;;;;;;2268800;61;1575;-86
2023/08/19 03:20:24;0.00;0.00;0.62;0.00;0.00;0.62;;;;;24.90;1.00;;;;;;2268843;61;1670;-86
2023/08/19 03:22:50;265148.00;0.88;458.00;16363.00;0.05;28.97;;;;;24.70;1.00;;;;;;2268772;61;1923;-86
2023/08/19 03:25:18;48706.00;0.16;84.95;0.00;0.00;0.62;;;;;24.60;1.00;;;;;;2269456;61;1682;-85
2023/08/19 03:27:47;97086.00;0.32;168.54;0.00;0.00;0.62;;;;;24.20;1.00;;;;;;2269559;61;1104;-87
2023/08/19 03:30:14;100899.00;0.34;175.12;14509.00;0.05;25.76;;;;;24.10;1.00;;;;;;2269556;61;1179;-87
2023/08/19 03:32:41;175688.00;0.59;304.06;0.00;0.00;0.62;;;;;24.40;1.00;;;;;;2269477;61;1730;-87
2023/08/19 03:35:09;103427.00;0.34;179.49;0.00;0.00;0.62;;;;;24.70;1.00;;;;;;2269395;61;1591;-87
2023/08/19 03:37:35;540040.00;1.80;930.79;69766.00;0.23;121.36;;;;;24.50;1.00;;;;;;2269501;61;2183;-88
2023/08/19 03:40:03;157018.00;0.52;271.90;0.00;0.00;0.62;;;;;24.60;1.00;;;;;;2269388;61;1670;-88
2023/08/19 03:42:30;321193.00;1.07;554.35;67523.00;0.23;117.48;;;;;24.40;1.20;;;;;;2269357;61;2002;-88
2023/08/19 03:44:58;188830.00;0.63;326.69;0.00;0.00;0.62;;;;;24.60;1.00;;;;;;2269428;61;1535;-88
2023/08/19 03:47:25;103338.00;0.34;179.33;0.00;0.00;0.62;;;;;24.50;1.20;;;;;;2269407;61;1673;-87
2023/08/19 03:49:52;383465.00;1.28;661.38;46699.00;0.16;81.48;;;;;24.50;1.10;;;;;;2269393;61;1678;-88
2023/08/19 03:52:21;384373.00;1.28;662.94;13696.00;0.05;24.35;;;;;24.50;1.50;;;;;;2269487;61;1594;-87
2023/08/19 03:54:50;280556.00;0.94;484.49;0.00;0.00;0.62;;;;;24.30;1.50;;;;;;2269388;61;1403;-86
2023/08/19 03:57:17;86128.00;0.29;149.62;0.00;0.00;0.62;;;;;24.20;2.10;;;;;;2269478;61;1223;-86
2023/08/19 03:59:44;180385.00;0.60;312.15;0.00;0.00;0.62;;;;;24.20;1.90;;;;;;2269467;61;991;-86
2023/08/19 04:02:14;211895.00;0.71;366.40;0.00;0.00;0.62;;;;;24.20;1.70;;;;;;2269430;61;2005;-86
2023/08/19 04:04:57;215080.00;0.72;371.88;0.00;0.00;0.62;;;;;23.80;2.50;;;;;;2269382;61;1418;-86
2023/08/19 04:07:24;102560.00;0.34;177.99;0.00;0.00;0.62;;;;;24.00;3.10;;;;;;2269294;61;1710;-87
2023/08/19 04:09:51;73957.00;0.25;128.60;0.00;0.00;0.62;;;;;24.00;2.30;;;;;;2269368;61;2306;-87
2023/08/19 04:12:19;251049.00;0.84;433.76;0.00;0.00;0.62;;;;;23.90;2.10;;;;;;2269322;61;1459;-88
2023/08/19 04:14:47;0.00;0.00;0.62;0.00;0.00;0.62;;;;;23.70;3.10;;;;;;2269317;61;1850;-86
2023/08/19 04:17:15;194756.00;0.65;336.90;0.00;0.00;0.62;;;;;23.70;3.20;;;;;;2269380;61;1617;-85
2023/08/19 04:19:43;491801.00;1.64;847.71;114078.00;0.38;197.87;;;;;23.50;3.90;;;;;;2269257;61;1589;-89
2023/08/19 04:22:11;1045515.00;3.49;1813.25;48458.00;0.16;84.52;;;;;23.70;3.60;;;;;;2269233;61;1918;-88
2023/08/19 04:24:38;803983.00;2.68;1388.07;107970.00;0.36;187.33;;;;;23.70;3.40;;;;;;2269264;61;1377;-87
2023/08/19 04:27:06;930525.00;3.10;1609.80;37425.00;0.12;65.43;;;;;23.50;3.90;;;;;;2269311;61;1658;-86
2023/08/19 04:29:33;931597.00;3.11;1611.68;99167.00;0.33;172.13;;;;;23.40;4.70;;;;;;2269236;61;1604;-87
2023/08/19 04:32:02;1067260.00;3.56;1851.97;68717.00;0.23;119.54;;;;;23.20;5.10;;;;;;2269352;61;1797;-88
2023/08/19 04:34:31;1887072.00;6.29;3394.97;236651.00;0.79;408.99;;;;;22.90;6.20;;;;;;2269170;61;1402;-86
2023/08/19 04:36:59;1058741.00;3.53;1836.79;114032.00;0.38;197.79;;;;;22.70;7.00;;;;;;2269288;61;1809;-87
2023/08/19 04:39:26;944828.00;3.15;1634.99;110701.00;0.37;192.04;;;;;22.80;7.00;;;;;;2269111;61;1637;-86
2023/08/19 04:41:54;997545.00;3.33;1728.12;90770.00;0.30;157.64;;;;;22.90;6.60;;;;;;2268830;61;2005;-88
2023/08/19 04:44:21;889441.00;2.96;1537.58;167608.00;0.56;290.15;;;;;22.90;6.60;;;;;;2269168;61;1679;-87
2023/08/19 04:46:48;415554.00;1.39;716.55;67973.00;0.23;118.26;;;;;22.90;7.30;;;;;;2269250;61;1545;-88
2023/08/19 04:49:15;478997.00;1.60;825.67;100218.00;0.33;173.95;;;;;23.10;6.50;;;;;;2269310;61;1044;-89
2023/08/19 04:51:43;394875.00;1.32;680.99;100418.00;0.33;174.29;;;;;23.10;6.00;;;;;;2269236;61;1762;-87
2023/08/19 04:54:10;337062.00;1.12;581.62;70639.00;0.24;122.86;;;;;23.20;5.40;;;;;;2269138;61;1653;-85
2023/08/19 04:56:37;482253.00;1.61;831.28;56323.00;0.19;98.12;;;;;23.40;5.30;;;;;;2269256;61;1341;-87
2023/08/19 04:59:05;603850.00;2.01;1040.87;55803.00;0.19;97.22;;;;;23.40;4.60;;;;;;2269280;61;984;-86
2023/08/19 05:01:32;414743.00;1.38;715.15;71917.00;0.24;125.07;;;;;23.60;4.70;;;;;;2269221;61;1915;-86
2023/08/19 05:03:59;183927.00;0.61;318.25;66677.00;0.22;116.02;;;;;23.90;3.40;;;;;;2268964;61;1384;-86
2023/08/19 05:06:26;400946.00;1.34;691.43;73620.00;0.25;128.02;;;;;24.10;3.30;;;;;;2269237;61;1159;-89
2023/08/19 05:08:55;226496.00;0.75;391.52;77811.00;0.26;135.26;;;;;24.30;2.70;;;;;;2269129;61;1593;-88
2023/08/19 05:11:22;104044.00;0.35;180.55;69129.00;0.23;120.26;;;;;24.20;3.00;;;;;;2269245;61;1034;-87
2023/08/19 05:13:49;117553920.00;391.85;65802356.00;0.00;0.00;0.62;;;;;24.20;3.30;;;;;;2269153;61;1407;-89
2023/08/19 05:16:16;262683.00;0.88;453.76;0.00;0.00;0.62;;;;;24.20;2.80;;;;;;2269138;61;1041;-86
2023/08/19 05:18:43;211454.00;0.70;365.64;0.00;0.00;0.62;;;;;24.10;3.10;;;;;;2269189;61;1165;-87
2023/08/19 05:21:10;185829.00;0.62;321.53;0.00;0.00;0.62;;;;;24.20;2.60;;;;;;2269154;61;1002;-87
2023/08/19 05:23:37;256191.00;0.85;442.60;47738.00;0.16;83.27;;;;;24.00;3.40;;;;;;2269048;61;1932;-88
2023/08/19 05:26:05;191035.00;0.64;330.49;14133.00;0.05;25.11;;;;;24.10;3.40;;;;;;2269192;61;1092;-87
2023/08/19 05:28:33;396322.00;1.32;683.48;107506.00;0.36;186.53;;;;;24.30;3.10;;;;;;2269041;61;1561;-86
2023/08/19 05:31:00;335730.00;1.12;579.33;55413.00;0.18;96.55;;;;;24.50;2.20;;;;;;2268851;61;1295;-90
2023/08/19 05:33:26;91183.00;0.30;158.35;0.00;0.00;0.62;;;;;24.70;2.10;;;;;;2268748;61;1648;-87
2023/08/19 05:35:53;142311.00;0.47;246.55;0.00;0.00;0.62;;;;;25.40;1.10;;;;;;2268824;61;1006;-87
2023/08/19 05:40:57;245981.00;0.82;425.04;0.00;0.00;0.62;;;;;27.50;1.00;;;;;;1572561;40;3451;-87
2023/08/19 05:43:25;45006.00;0.15;78.55;0.00;0.00;0.62;;;;;28.90;1.00;;;;;;2272702;61;2005;-88
2023/08/19 05:45:53;327045.00;1.09;564.41;0.00;0.00;0.62;;;;;29.90;1.00;;;;;;2272759;61;1668;-87
2023/08/19 05:48:20;362459.00;1.21;625.28;43697.00;0.15;76.28;;;;;30.50;1.00;;;;;;2282233;55;3746;-86
2023/08/19 05:50:47;302498.00;1.01;522.21;49587.00;0.17;86.47;;;;;31.00;1.00;;;;;;2272855;61;1707;-88
2023/08/19 05:53:14;224689.00;0.75;388.41;69913.00;0.23;121.61;;;;;31.60;1.00;;;;;;2272798;61;1273;-87
2023/08/19 05:55:41;317050.00;1.06;547.23;0.00;0.00;0.62;;;;;32.20;1.00;;;;;;2276706;39;3614;-88
2023/08/19 05:58:07;527974.00;1.76;910.00;132294.00;0.44;229.28;;;;;33.00;1.00;;;;;;2268705;61;1615;-86
2023/08/19 06:00:36;210630.00;0.70;364.22;0.00;0.00;0.62;;;;;33.10;1.00;;;;;;2268684;61;1040;-85
2023/08/19 06:03:03;279884.00;0.93;483.34;0.00;0.00;0.62;;;;;33.10;1.00;;;;;;2268872;61;1917;-87
2023/08/19 06:05:30;345116.00;1.15;595.47;23907.00;0.08;42.04;;;;;33.00;1.00;;;;;;2268806;61;1360;-87
2023/08/19 06:07:57;278182.00;0.93;480.41;0.00;0.00;0.62;;;;;33.20;1.00;;;;;;2268813;61;1071;-88
2023/08/19 06:10:24;360072.00;1.20;621.17;0.00;0.00;0.62;;;;;33.40;1.00;;;;;;2268872;61;1000;-88
2023/08/19 06:15:26;395047.00;1.32;681.29;0.00;0.00;0.62;;;;;35.10;1.00;;;;;;2295604;41;1847;-88
2023/08/19 06:17:54;248611.00;0.83;429.56;0.00;0.00;0.62;;;;;35.40;1.00;;;;;;2272935;61;983;-90
2023/08/19 06:20:21;236935.00;0.79;409.48;0.00;0.00;0.62;;;;;35.70;1.00;;;;;;2272715;61;1342;-87
2023/08/19 06:22:48;345743.00;1.15;596.54;42171.00;0.14;73.64;;;;;35.90;1.00;;;;;;2272832;61;2024;-87
2023/08/19 06:25:15;173629.00;0.58;300.52;0.00;0.00;0.62;;;;;36.20;1.00;;;;;;2272691;61;1387;-87
2023/08/19 06:27:41;223270.00;0.74;385.97;0.00;0.00;0.62;;;;;36.50;1.00;;;;;;2272679;61;1073;-89
2023/08/19 06:30:09;159796.00;0.53;276.69;0.00;0.00;0.62;;;;;36.50;1.00;;;;;;2272777;61;981;-87
2023/08/19 06:35:12;635604.00;2.12;1095.74;0.00;0.00;0.62;;;;;36.20;1.00;;;;;;2274508;61;1456;-88
2023/08/19 06:37:42;137933.00;0.46;239.01;0.00;0.00;0.62;;;;;36.70;1.00;;;;;;2272911;61;1032;-89
2023/08/19 06:40:18;607218.00;2.02;1046.68;0.00;0.00;0.62;;;;;36.80;1.00;;;;;;2301063;40;3537;-88
2023/08/19 06:42:46;41455.00;0.14;72.41;0.00;0.00;0.62;;;;;37.00;1.00;;;;;;2272716;61;2008;-89
2023/08/19 06:45:16;158300.00;0.53;274.11;0.00;0.00;0.62;;;;;37.20;1.00;;;;;;2272775;61;1296;-89
2023/08/19 06:47:45;220554.00;0.74;381.30;0.00;0.00;0.62;;;;;37.80;1.00;;;;;;2272789;61;1136;-87
2023/08/19 06:50:15;639125.00;2.13;1101.83;111945.00;0.37;194.19;;;;;37.80;1.00;;;;;;2289317;56;3746;-88
2023/08/19 06:52:42;222848.00;0.74;385.24;0.00;0.00;0.62;;;;;38.90;1.00;;;;;;2272822;61;1067;-89
2023/08/19 06:55:11;129017.00;0.43;223.63;0.00;0.00;0.62;;;;;39.00;1.00;;;;;;2272814;61;1329;-87
2023/08/19 06:57:49;318933.00;1.06;550.46;83784.00;0.28;145.57;;;;;39.60;1.00;;;;;;2274276;55;3726;-86
2023/08/19 07:00:17;245464.00;0.82;424.15;0.00;0.00;0.62;;;;;39.40;1.00;;;;;;2272808;61;1170;-88
2023/08/19 07:02:46;35931.00;0.12;62.85;0.00;0.00;0.62;;;;;39.00;1.00;;;;;;2272788;61;1988;-88
2023/08/19 07:05:16;55449.00;0.18;96.61;0.00;0.00;0.62;;;;;39.30;1.00;;;;;;2272737;61;1403;-85
2023/08/19 07:07:47;128780.00;0.43;223.23;0.00;0.00;0.62;;;;;39.00;1.00;;;;;;2272809;61;1551;-87
2023/08/19 07:10:16;174089.00;0.58;301.31;0.00;0.00;0.62;;;;;39.00;1.00;;;;;;2272785;61;1594;-87
2023/08/19 07:12:44;202463.00;0.67;350.16;0.00;0.00;0.62;;;;;38.80;1.00;;;;;;2272790;61;994;-89
2023/08/19 07:15:12;228157.00;0.76;394.38;0.00;0.00;0.62;;;;;39.70;1.00;;;;;;2272590;61;1293;-88
2023/08/19 07:17:44;68855.00;0.23;119.78;0.00;0.00;0.62;;;;;39.90;1.00;;;;;;2272522;61;1067;-89
2023/08/19 07:20:16;150977.00;0.50;261.49;0.00;0.00;0.62;;;;;39.80;1.00;;;;;;2272477;61;1156;-89
2023/08/19 07:22:44;84958.00;0.28;147.60;0.00;0.00;0.62;;;;;40.00;1.00;;;;;;2272633;61;1982;-90
2023/08/19 07:25:12;69952.00;0.23;121.68;0.00;0.00;0.62;;;;;40.00;1.00;;;;;;2272855;61;1591;-89
2023/08/19 07:27:39;385672.00;1.29;665.18;38698.00;0.13;67.64;;;;;39.40;1.00;;;;;;2272951;61;1183;-88
2023/08/19 07:30:07;163576.00;0.55;283.20;0.00;0.00;0.62;;;;;39.60;1.00;;;;;;2272910;61;1078;-88
2023/08/19 07:32:36;119185.00;0.40;206.68;0.00;0.00;0.62;;;;;39.80;1.00;;;;;;2272942;61;1064;-90
2023/08/19 07:35:03;42362.00;0.14;73.97;0.00;0.00;0.62;;;;;40.60;1.00;;;;;;2272850;61;1631;-90
2023/08/19 07:37:32;123704.00;0.41;214.47;0.00;0.00;0.62;;;;;40.80;1.00;;;;;;2272830;61;1804;-90
2023/08/19 07:39:59;202827.00;0.68;350.79;0.00;0.00;0.62;;;;;41.20;1.00;;;;;;2272879;61;1466;-88
2023/08/19 07:42:27;64601.00;0.22;112.43;0.00;0.00;0.62;;;;;40.30;1.00;;;;;;2272828;61;2008;-89
2023/08/19 07:44:54;150858.00;0.50;261.29;0.00;0.00;0.62;;;;;40.80;1.00;;;;;;2272841;61;1336;-88
2023/08/19 07:47:21;96397.00;0.32;167.35;0.00;0.00;0.62;;;;;40.40;1.00;;;;;;2272820;61;1062;-90
2023/08/19 07:49:48;29191.00;0.10;51.18;0.00;0.00;0.62;;;;;40.60;1.00;;;;;;2272876;61;1110;-90
2023/08/19 07:52:15;212631.00;0.71;367.66;0.00;0.00;0.62;;;;;41.00;1.00;;;;;;2272823;61;1074;-90
2023/08/19 07:54:43;180343.00;0.60;312.08;0.00;0.00;0.62;;;;;40.80;1.00;;;;;;2272779;61;1425;-90
2023/08/19 07:57:10;122744.00;0.41;212.82;0.00;0.00;0.62;;;;;40.90;1.00;;;;;;2272865;61;1095;-88
2023/08/19 07:59:37;214863.00;0.72;371.50;0.00;0.00;0.62;;;;;41.20;1.00;;;;;;2272748;61;987;-88
2023/08/19 08:02:04;116864896.00;389.55;64651040.00;0.00;0.00;0.62;;;;;40.90;1.00;;;;;;2272803;61;2039;-88
2023/08/19 08:04:31;119478.00;0.40;207.18;0.00;0.00;0.62;;;;;41.30;1.00;;;;;;2272587;61;1930;-89
2023/08/19 08:06:58;397951.00;1.33;686.28;7242.00;0.02;13.17;;;;;41.30;1.00;;;;;;2272684;61;1075;-90
2023/08/19 08:09:25;1491459.00;4.97;2627.06;127174.00;0.42;220.46;;;;;41.30;1.00;;;;;;2272932;61;1098;-90
2023/08/19 08:11:53;847874.00;2.83;1464.75;25362.00;0.08;44.55;;;;;41.30;1.00;;;;;;2273553;61;1095;-89
2023/08/19 08:14:20;886390.00;2.95;1532.23;32481.00;0.11;56.88;;;;;39.90;1.00;;;;;;2273468;61;2088;-89
2023/08/19 08:16:47;649292.00;2.16;1119.41;25559.00;0.09;44.90;;;;;40.10;1.00;;;;;;2273441;61;1664;-88
2023/08/19 08:19:13;651606.00;2.17;1123.41;29390.00;0.10;51.53;;;;;40.30;1.00;;;;;;2273542;61;1073;-91
2023/08/19 08:21:40;706314.00;2.35;1218.19;25473.00;0.08;44.75;;;;;38.90;1.00;;;;;;2273450;61;1541;-89
2023/08/19 08:24:08;839001.00;2.80;1449.23;13851.00;0.05;24.62;;;;;39.30;1.00;;;;;;2273397;61;1918;-89
2023/08/19 08:26:34;919300.00;3.06;1590.04;14356.00;0.05;25.50;;;;;39.80;1.00;;;;;;2273398;61;1098;-89
2023/08/19 08:29:03;603069.00;2.01;1039.52;83942.00;0.28;145.85;;;;;38.90;1.00;;;;;;2273456;61;1035;-88
2023/08/19 08:31:30;878876.00;2.93;1519.05;58136.00;0.19;101.25;;;;;38.60;1.00;;;;;;2273383;61;1609;-88
2023/08/19 08:33:57;819612.00;2.73;1415.35;31191.00;0.10;54.64;;;;;38.40;1.00;;;;;;2273389;61;1348;-89
2023/08/19 08:36:24;854737.00;2.85;1476.76;127041.00;0.42;220.23;;;;;38.90;1.00;;;;;;2273449;61;1085;-89
2023/08/19 08:38:51;663611.00;2.21;1144.19;49653.00;0.17;86.59;;;;;38.70;1.00;;;;;;2273331;61;1412;-89
2023/08/19 08:41:18;749086.00;2.50;1292.47;52078.00;0.17;90.78;;;;;37.90;1.00;;;;;;2273356;61;1082;-90
2023/08/19 08:43:48;1250060.00;4.17;2181.00;178244.00;0.59;308.47;;;;;38.00;1.00;;;;;;2273245;61;1924;-90
2023/08/19 08:46:19;1142031.00;3.81;1985.76;118941.00;0.40;206.26;;;;;38.30;1.00;;;;;;2273419;61;1073;-88
2023/08/19 08:48:46;765393.00;2.55;1320.83;74491.00;0.25;129.52;;;;;38.10;1.00;;;;;;2273413;61;1083;-91
2023/08/19 08:51:15;1017709.00;3.39;1763.86;77305.00;0.26;134.38;;;;;38.60;1.00;;;;;;2273303;61;1093;-89
2023/08/19 08:53:42;988817.00;3.30;1712.68;141030.00;0.47;244.35;;;;;38.10;1.00;;;;;;2273360;61;1414;-88
2023/08/19 08:56:09;1006075.00;3.35;1743.23;149284.00;0.50;258.57;;;;;38.00;1.00;;;;;;2273395;61;1110;-90
2023/08/19 08:58:36;845445.00;2.82;1460.50;112425.00;0.37;195.01;;;;;38.10;1.00;;;;;;2273295;61;1078;-90
2023/08/19 09:01:04;1148745.00;3.83;1997.82;147614.00;0.49;255.70;;;;;37.80;1.00;;;;;;2273301;61;1072;-90
2023/08/19 09:03:34;1066632.00;3.56;1850.85;201008.00;0.67;347.66;;;;;37.90;1.00;;;;;;2273244;61;1915;-89
2023/08/19 09:06:11;1104898.00;3.68;1919.19;162627.00;0.54;281.57;;;;;38.00;1.00;;;;;;2273426;61;1207;-88
2023/08/19 09:08:43;1128216.00;3.76;1960.96;98249.00;0.33;170.55;;;;;37.30;1.00;;;;;;2273284;61;1622;-89
2023/08/19 09:11:14;997277.00;3.32;1727.65;178523.00;0.60;308.95;;;;;37.20;1.00;;;;;;2273364;61;1099;-89
2023/08/19 09:13:43;849302.00;2.83;1467.25;111746.00;0.37;193.84;;;;;37.10;1.00;;;;;;2273249;61;1460;-89
2023/08/19 09:16:11;1504063.00;5.01;2650.77;163829.00;0.55;283.64;;;;;36.80;1.00;;;;;;2273321;61;1102;-90
2023/08/19 09:18:40;795989.00;2.65;1374.13;155212.00;0.52;268.79;;;;;36.70;1.00;;;;;;2273296;61;1248;-88
2023/08/19 09:21:07;647258.00;2.16;1115.89;53189.00;0.18;92.70;;;;;36.70;1.00;;;;;;2273083;61;1300;-90
2023/08/19 09:23:33;898486.00;2.99;1553.46;24683.00;0.08;43.38;;;;;36.50;1.00;;;;;;2273266;61;1996;-89
2023/08/19 09:26:01;1140109.00;3.80;1982.30;267859.00;0.89;462.66;;;;;36.70;1.00;;;;;;2273259;61;1537;-88
2023/08/19 09:28:28;1166020.00;3.89;2028.90;203912.00;0.68;352.66;;;;;37.20;1.00;;;;;;2273307;61;1640;-89
2023/08/19 09:30:55;1277146.00;4.26;2230.34;234884.00;0.78;405.95;;;;;37.60;1.00;;;;;;2273213;61;1741;-89
2023/08/19 09:33:22;848309.00;2.83;1465.51;164343.00;0.55;284.52;;;;;37.70;1.00;;;;;;2273211;61;1402;-89
2023/08/19 09:36:00;539065.00;1.80;929.11;126514.00;0.42;219.32;;;;;37.50;1.00;;;;;;2273243;61;1773;-90
2023/08/19 09:38:27;1019407.00;3.40;1766.87;76692.00;0.26;133.32;;;;;37.50;1.00;;;;;;2273190;61;1550;-90
2023/08/19 09:41:03;993519.00;3.31;1721.00;149217.00;0.50;258.46;;;;;37.50;1.00;;;;;;2273264;61;1174;-89
2023/08/19 09:43:30;888103.00;2.96;1535.23;35988.00;0.12;62.95;;;;;37.30;1.00;;;;;;2273162;61;1915;-87
2023/08/19 09:45:57;1047093.00;3.49;1816.06;181356.00;0.60;313.82;;;;;37.10;1.00;;;;;;2273200;61;1069;-90
2023/08/19 09:48:25;832328.00;2.77;1437.56;169068.00;0.56;292.66;;;;;36.90;1.00;;;;;;2273204;61;1051;-91
2023/08/19 09:50:52;1303912.00;4.35;2279.27;127153.00;0.42;220.42;;;;;37.00;1.00;;;;;;2273065;61;1561;-89
2023/08/19 09:53:20;197196.00;0.66;341.10;59322.00;0.20;103.30;;;;;37.10;1.00;;;;;;2273224;61;1292;-89